sensor_id;sensor_type;location;lat;lon;timestamp;P1;durP1;ratioP1;P2;durP2;ratioP2
2396;SDS011;1209;48.410;9.054;2023-04-06T00:00:32;10.50;;;7.27;;
2396;SDS011;1209;48.410;9.054;2023-04-06T00:02:57;12.20;;;7.53;;
2396;SDS011;1209;48.410;9.054;2023-04-06T00:05:22;8.70;;;7.00;;
2396;SDS011;1209;48.410;9.054;2023-04-06T00:07:48;8.63;;;6.90;;
2396;SDS011;1209;48.410;9.054;2023-04-06T00:10:16;9.27;;;7.00;;
2396;SDS011;1209;48.410;9.054;2023-04-06T00:12:41;7.70;;;6.50;;
2396;SDS011;1209;48.410;9.054;2023-04-06T00:15:07;10.40;;;6.90;;
2396;SDS011;1209;48.410;9.054;2023-04-06T00:17:33;9.23;;;7.37;;
2396;SDS011;1209;48.410;9.054;2023-04-06T00:19:59;10.40;;;7.00;;
2396;SDS011;1209;48.410;9.054;2023-04-06T00:22:24;14.73;;;7.60;;
2396;SDS011;1209;48.410;9.054;2023-04-06T00:24:49;10.13;;;6.70;;
2396;SDS011;1209;48.410;9.054;2023-04-06T00:27:15;13.23;;;7.80;;
2396;SDS011;1209;48.410;9.054;2023-04-06T00:29:40;9.70;;;6.30;;
2396;SDS011;1209;48.410;9.054;2023-04-06T00:32:05;9.30;;;6.30;;
2396;SDS011;1209;48.410;9.054;2023-04-06T00:34:31;11.23;;;7.27;;
2396;SDS011;1209;48.410;9.054;2023-04-06T00:36:56;10.67;;;5.87;;
2396;SDS011;1209;48.410;9.054;2023-04-06T00:39:22;10.13;;;7.30;;
2396;SDS011;1209;48.410;9.054;2023-04-06T00:41:49;7.93;;;6.60;;
2396;SDS011;1209;48.410;9.054;2023-04-06T00:44:16;13.60;;;7.20;;
2396;SDS011;1209;48.410;9.054;2023-04-06T00:46:41;7.33;;;5.63;;
2396;SDS011;1209;48.410;9.054;2023-04-06T00:49:07;9.87;;;6.03;;
2396;SDS011;1209;48.410;9.054;2023-04-06T00:51:32;8.07;;;6.67;;
2396;SDS011;1209;48.410;9.054;2023-04-06T00:53:58;8.67;;;6.43;;
2396;SDS011;1209;48.410;9.054;2023-04-06T00:56:23;9.70;;;6.70;;
2396;SDS011;1209;48.410;9.054;2023-04-06T00:58:49;9.57;;;5.83;;
2396;SDS011;1209;48.410;9.054;2023-04-06T01:01:15;12.35;;;6.63;;
2396;SDS011;1209;48.410;9.054;2023-04-06T01:03:41;6.30;;;5.47;;
2396;SDS011;1209;48.410;9.054;2023-04-06T01:06:07;7.63;;;5.88;;
2396;SDS011;1209;48.410;9.054;2023-04-06T01:08:32;7.87;;;5.60;;
2396;SDS011;1209;48.410;9.054;2023-04-06T01:10:59;8.50;;;6.40;;
2396;SDS011;1209;48.410;9.054;2023-04-06T01:13:25;7.00;;;5.65;;
2396;SDS011;1209;48.410;9.054;2023-04-06T01:15:52;7.85;;;5.88;;
2396;SDS011;1209;48.410;9.054;2023-04-06T01:18:18;7.20;;;5.47;;
2396;SDS011;1209;48.410;9.054;2023-04-06T01:20:43;7.20;;;5.33;;
2396;SDS011;1209;48.410;9.054;2023-04-06T01:23:08;6.77;;;5.23;;
2396;SDS011;1209;48.410;9.054;2023-04-06T01:25:34;7.20;;;5.80;;
2396;SDS011;1209;48.410;9.054;2023-04-06T01:27:59;6.80;;;5.33;;
2396;SDS011;1209;48.410;9.054;2023-04-06T01:30:25;8.80;;;5.67;;
2396;SDS011;1209;48.410;9.054;2023-04-06T01:32:50;7.93;;;6.23;;
2396;SDS011;1209;48.410;9.054;2023-04-06T01:35:17;9.00;;;5.60;;
2396;SDS011;1209;48.410;9.054;2023-04-06T01:37:43;5.28;;;4.63;;
2396;SDS011;1209;48.410;9.054;2023-04-06T01:40:09;5.47;;;4.63;;
2396;SDS011;1209;48.410;9.054;2023-04-06T01:42:36;16.67;;;5.80;;
2396;SDS011;1209;48.410;9.054;2023-04-06T01:45:02;7.93;;;6.00;;
2396;SDS011;1209;48.410;9.054;2023-04-06T01:47:27;11.90;;;6.20;;
2396;SDS011;1209;48.410;9.054;2023-04-06T01:49:52;5.47;;;4.80;;
2396;SDS011;1209;48.410;9.054;2023-04-06T01:52:18;6.17;;;4.90;;
2396;SDS011;1209;48.410;9.054;2023-04-06T01:54:43;5.13;;;4.60;;
2396;SDS011;1209;48.410;9.054;2023-04-06T01:57:09;8.47;;;5.20;;
2396;SDS011;1209;48.410;9.054;2023-04-06T01:59:35;10.38;;;6.63;;
2396;SDS011;1209;48.410;9.054;2023-04-06T02:02:00;7.27;;;5.00;;
2396;SDS011;1209;48.410;9.054;2023-04-06T02:04:26;5.83;;;5.33;;
2396;SDS011;1209;48.410;9.054;2023-04-06T02:06:51;7.33;;;5.27;;
2396;SDS011;1209;48.410;9.054;2023-04-06T02:09:16;7.40;;;5.20;;
2396;SDS011;1209;48.410;9.054;2023-04-06T02:11:42;7.33;;;5.23;;
2396;SDS011;1209;48.410;9.054;2023-04-06T02:14:07;6.37;;;5.77;;
2396;SDS011;1209;48.410;9.054;2023-04-06T02:16:32;10.50;;;6.90;;
2396;SDS011;1209;48.410;9.054;2023-04-06T02:18:58;11.20;;;6.53;;
2396;SDS011;1209;48.410;9.054;2023-04-06T02:21:23;14.90;;;6.60;;
2396;SDS011;1209;48.410;9.054;2023-04-06T02:23:49;6.70;;;5.80;;
2396;SDS011;1209;48.410;9.054;2023-04-06T02:26:14;10.10;;;6.00;;
2396;SDS011;1209;48.410;9.054;2023-04-06T02:28:40;9.50;;;6.43;;
2396;SDS011;1209;48.410;9.054;2023-04-06T02:31:05;10.03;;;6.50;;
2396;SDS011;1209;48.410;9.054;2023-04-06T02:33:31;6.50;;;5.70;;
2396;SDS011;1209;48.410;9.054;2023-04-06T02:35:56;5.93;;;5.07;;
2396;SDS011;1209;48.410;9.054;2023-04-06T02:38:21;6.33;;;5.57;;
2396;SDS011;1209;48.410;9.054;2023-04-06T02:40:47;8.60;;;5.80;;
2396;SDS011;1209;48.410;9.054;2023-04-06T02:43:12;7.93;;;6.30;;
2396;SDS011;1209;48.410;9.054;2023-04-06T02:45:37;8.23;;;6.60;;
2396;SDS011;1209;48.410;9.054;2023-04-06T02:48:03;7.30;;;6.50;;
2396;SDS011;1209;48.410;9.054;2023-04-06T02:50:28;11.40;;;6.60;;
2396;SDS011;1209;48.410;9.054;2023-04-06T02:52:53;15.63;;;5.93;;
2396;SDS011;1209;48.410;9.054;2023-04-06T02:55:19;9.57;;;6.27;;
2396;SDS011;1209;48.410;9.054;2023-04-06T02:57:44;9.87;;;6.63;;
2396;SDS011;1209;48.410;9.054;2023-04-06T03:00:10;9.20;;;5.77;;
2396;SDS011;1209;48.410;9.054;2023-04-06T03:02:36;7.90;;;6.28;;
2396;SDS011;1209;48.410;9.054;2023-04-06T03:05:02;8.13;;;6.00;;
2396;SDS011;1209;48.410;9.054;2023-04-06T03:07:28;7.40;;;6.05;;
2396;SDS011;1209;48.410;9.054;2023-04-06T03:09:53;6.73;;;5.30;;
2396;SDS011;1209;48.410;9.054;2023-04-06T03:12:18;13.20;;;6.30;;
2396;SDS011;1209;48.410;9.054;2023-04-06T03:14:44;11.00;;;6.40;;
2396;SDS011;1209;48.410;9.054;2023-04-06T03:17:09;9.63;;;6.60;;
2396;SDS011;1209;48.410;9.054;2023-04-06T03:19:35;9.37;;;6.80;;
2396;SDS011;1209;48.410;9.054;2023-04-06T03:22:00;6.17;;;5.63;;
2396;SDS011;1209;48.410;9.054;2023-04-06T03:24:26;8.60;;;6.47;;
2396;SDS011;1209;48.410;9.054;2023-04-06T03:26:51;7.93;;;5.67;;
2396;SDS011;1209;48.410;9.054;2023-04-06T03:29:16;7.97;;;5.63;;
2396;SDS011;1209;48.410;9.054;2023-04-06T03:31:41;11.87;;;6.50;;
2396;SDS011;1209;48.410;9.054;2023-04-06T03:34:07;7.63;;;5.60;;
2396;SDS011;1209;48.410;9.054;2023-04-06T03:36:33;6.80;;;6.03;;
2396;SDS011;1209;48.410;9.054;2023-04-06T03:38:59;8.52;;;6.80;;
2396;SDS011;1209;48.410;9.054;2023-04-06T03:41:24;11.10;;;7.10;;
2396;SDS011;1209;48.410;9.054;2023-04-06T03:43:50;6.70;;;5.70;;
2396;SDS011;1209;48.410;9.054;2023-04-06T03:46:15;7.67;;;6.20;;
2396;SDS011;1209;48.410;9.054;2023-04-06T03:48:40;11.13;;;6.57;;
2396;SDS011;1209;48.410;9.054;2023-04-06T03:51:06;8.83;;;6.00;;
2396;SDS011;1209;48.410;9.054;2023-04-06T03:53:31;8.43;;;5.80;;
2396;SDS011;1209;48.410;9.054;2023-04-06T03:55:56;8.27;;;5.70;;
2396;SDS011;1209;48.410;9.054;2023-04-06T03:58:22;7.90;;;5.20;;
2396;SDS011;1209;48.410;9.054;2023-04-06T04:00:47;10.37;;;6.80;;
2396;SDS011;1209;48.410;9.054;2023-04-06T04:03:12;8.30;;;5.83;;
2396;SDS011;1209;48.410;9.054;2023-04-06T04:05:38;8.80;;;6.87;;
2396;SDS011;1209;48.410;9.054;2023-04-06T04:08:03;8.43;;;5.77;;
2396;SDS011;1209;48.410;9.054;2023-04-06T04:10:28;6.70;;;5.70;;
2396;SDS011;1209;48.410;9.054;2023-04-06T04:12:54;9.97;;;7.17;;
2396;SDS011;1209;48.410;9.054;2023-04-06T04:15:19;7.87;;;6.57;;
2396;SDS011;1209;48.410;9.054;2023-04-06T04:17:45;12.50;;;7.10;;
2396;SDS011;1209;48.410;9.054;2023-04-06T04:20:12;8.90;;;6.80;;
2396;SDS011;1209;48.410;9.054;2023-04-06T04:22:37;9.53;;;6.87;;
2396;SDS011;1209;48.410;9.054;2023-04-06T04:25:02;10.10;;;6.37;;
2396;SDS011;1209;48.410;9.054;2023-04-06T04:27:28;10.57;;;8.33;;
2396;SDS011;1209;48.410;9.054;2023-04-06T04:29:53;7.17;;;5.13;;
2396;SDS011;1209;48.410;9.054;2023-04-06T04:32:18;8.00;;;5.77;;
2396;SDS011;1209;48.410;9.054;2023-04-06T04:34:44;9.50;;;7.33;;
2396;SDS011;1209;48.410;9.054;2023-04-06T04:37:10;7.37;;;6.00;;
2396;SDS011;1209;48.410;9.054;2023-04-06T04:39:35;8.87;;;7.30;;
2396;SDS011;1209;48.410;9.054;2023-04-06T04:42:00;9.07;;;6.03;;
2396;SDS011;1209;48.410;9.054;2023-04-06T04:44:26;8.30;;;6.20;;
2396;SDS011;1209;48.410;9.054;2023-04-06T04:46:51;7.17;;;5.93;;
2396;SDS011;1209;48.410;9.054;2023-04-06T04:49:17;11.70;;;6.87;;
2396;SDS011;1209;48.410;9.054;2023-04-06T04:51:42;7.80;;;6.30;;
2396;SDS011;1209;48.410;9.054;2023-04-06T04:54:07;14.37;;;6.77;;
2396;SDS011;1209;48.410;9.054;2023-04-06T04:56:33;9.00;;;6.73;;
2396;SDS011;1209;48.410;9.054;2023-04-06T04:58:58;8.43;;;6.67;;
2396;SDS011;1209;48.410;9.054;2023-04-06T05:01:23;9.63;;;7.00;;
2396;SDS011;1209;48.410;9.054;2023-04-06T05:03:49;9.20;;;6.03;;
2396;SDS011;1209;48.410;9.054;2023-04-06T05:06:14;10.63;;;5.23;;
2396;SDS011;1209;48.410;9.054;2023-04-06T05:08:40;8.87;;;6.17;;
2396;SDS011;1209;48.410;9.054;2023-04-06T05:11:06;8.27;;;6.25;;
2396;SDS011;1209;48.410;9.054;2023-04-06T05:13:32;8.30;;;5.53;;
2396;SDS011;1209;48.410;9.054;2023-04-06T05:15:57;8.33;;;5.77;;
2396;SDS011;1209;48.410;9.054;2023-04-06T05:18:22;6.60;;;5.13;;
2396;SDS011;1209;48.410;9.054;2023-04-06T05:20:48;8.53;;;6.40;;
2396;SDS011;1209;48.410;9.054;2023-04-06T05:23:13;7.43;;;6.20;;
2396;SDS011;1209;48.410;9.054;2023-04-06T05:25:38;11.20;;;7.03;;
2396;SDS011;1209;48.410;9.054;2023-04-06T05:28:04;14.10;;;7.37;;
2396;SDS011;1209;48.410;9.054;2023-04-06T05:30:29;11.73;;;7.00;;
2396;SDS011;1209;48.410;9.054;2023-04-06T05:32:55;13.83;;;8.50;;
2396;SDS011;1209;48.410;9.054;2023-04-06T05:35:20;17.87;;;8.87;;
2396;SDS011;1209;48.410;9.054;2023-04-06T05:37:45;12.47;;;8.37;;
2396;SDS011;1209;48.410;9.054;2023-04-06T05:40:11;13.27;;;9.10;;
2396;SDS011;1209;48.410;9.054;2023-04-06T05:42:40;11.13;;;7.80;;
2396;SDS011;1209;48.410;9.054;2023-04-06T05:45:07;11.07;;;7.47;;
2396;SDS011;1209;48.410;9.054;2023-04-06T05:47:34;9.90;;;7.70;;
2396;SDS011;1209;48.410;9.054;2023-04-06T05:50:00;11.23;;;7.67;;
2396;SDS011;1209;48.410;9.054;2023-04-06T05:52:25;11.50;;;8.63;;
2396;SDS011;1209;48.410;9.054;2023-04-06T05:54:50;13.93;;;8.60;;
2396;SDS011;1209;48.410;9.054;2023-04-06T05:57:16;15.18;;;8.20;;
2396;SDS011;1209;48.410;9.054;2023-04-06T05:59:42;11.30;;;8.00;;
2396;SDS011;1209;48.410;9.054;2023-04-06T06:02:07;12.40;;;7.03;;
2396;SDS011;1209;48.410;9.054;2023-04-06T06:04:32;12.13;;;7.50;;
2396;SDS011;1209;48.410;9.054;2023-04-06T06:06:58;11.07;;;7.30;;
2396;SDS011;1209;48.410;9.054;2023-04-06T06:09:23;13.87;;;9.10;;
2396;SDS011;1209;48.410;9.054;2023-04-06T06:11:48;15.30;;;8.60;;
2396;SDS011;1209;48.410;9.054;2023-04-06T06:14:14;10.43;;;7.50;;
2396;SDS011;1209;48.410;9.054;2023-04-06T06:16:40;17.67;;;8.93;;
2396;SDS011;1209;48.410;9.054;2023-04-06T06:19:05;15.43;;;9.93;;
2396;SDS011;1209;48.410;9.054;2023-04-06T06:21:30;11.40;;;8.07;;
2396;SDS011;1209;48.410;9.054;2023-04-06T06:23:56;12.17;;;7.80;;
2396;SDS011;1209;48.410;9.054;2023-04-06T06:26:21;10.57;;;7.77;;
2396;SDS011;1209;48.410;9.054;2023-04-06T06:28:47;18.60;;;10.27;;
2396;SDS011;1209;48.410;9.054;2023-04-06T06:31:12;9.13;;;7.20;;
2396;SDS011;1209;48.410;9.054;2023-04-06T06:33:37;16.27;;;8.20;;
2396;SDS011;1209;48.410;9.054;2023-04-06T06:36:03;9.37;;;7.90;;
2396;SDS011;1209;48.410;9.054;2023-04-06T06:38:28;10.60;;;7.90;;
2396;SDS011;1209;48.410;9.054;2023-04-06T06:40:54;13.80;;;7.00;;
2396;SDS011;1209;48.410;9.054;2023-04-06T06:43:19;10.10;;;8.00;;
2396;SDS011;1209;48.410;9.054;2023-04-06T06:45:44;12.83;;;7.43;;
2396;SDS011;1209;48.410;9.054;2023-04-06T06:48:10;17.17;;;8.23;;
2396;SDS011;1209;48.410;9.054;2023-04-06T06:50:35;10.63;;;7.67;;
2396;SDS011;1209;48.410;9.054;2023-04-06T06:53:01;9.27;;;7.10;;
2396;SDS011;1209;48.410;9.054;2023-04-06T06:55:26;12.30;;;6.77;;
2396;SDS011;1209;48.410;9.054;2023-04-06T06:57:52;8.40;;;6.60;;
2396;SDS011;1209;48.410;9.054;2023-04-06T07:00:18;9.53;;;7.13;;
2396;SDS011;1209;48.410;9.054;2023-04-06T07:02:45;14.15;;;8.07;;
2396;SDS011;1209;48.410;9.054;2023-04-06T07:05:11;8.00;;;5.90;;
2396;SDS011;1209;48.410;9.054;2023-04-06T07:07:36;12.93;;;7.17;;
2396;SDS011;1209;48.410;9.054;2023-04-06T07:10:01;10.53;;;6.80;;
2396;SDS011;1209;48.410;9.054;2023-04-06T07:12:27;9.50;;;7.00;;
2396;SDS011;1209;48.410;9.054;2023-04-06T07:14:52;6.07;;;5.30;;
2396;SDS011;1209;48.410;9.054;2023-04-06T07:17:17;8.83;;;5.73;;
2396;SDS011;1209;48.410;9.054;2023-04-06T07:19:43;10.70;;;6.40;;
2396;SDS011;1209;48.410;9.054;2023-04-06T07:22:08;10.40;;;7.67;;
2396;SDS011;1209;48.410;9.054;2023-04-06T07:24:33;16.47;;;7.30;;
2396;SDS011;1209;48.410;9.054;2023-04-06T07:26:59;9.93;;;6.40;;
2396;SDS011;1209;48.410;9.054;2023-04-06T07:29:25;10.18;;;6.40;;
2396;SDS011;1209;48.410;9.054;2023-04-06T07:31:52;15.13;;;6.47;;
2396;SDS011;1209;48.410;9.054;2023-04-06T07:34:17;11.20;;;7.40;;
2396;SDS011;1209;48.410;9.054;2023-04-06T07:36:42;11.87;;;7.10;;
2396;SDS011;1209;48.410;9.054;2023-04-06T07:39:07;10.30;;;7.37;;
2396;SDS011;1209;48.410;9.054;2023-04-06T07:41:33;13.33;;;7.77;;
2396;SDS011;1209;48.410;9.054;2023-04-06T07:43:58;9.23;;;7.67;;
2396;SDS011;1209;48.410;9.054;2023-04-06T07:46:24;13.27;;;6.50;;
2396;SDS011;1209;48.410;9.054;2023-04-06T07:48:49;13.20;;;8.13;;
2396;SDS011;1209;48.410;9.054;2023-04-06T07:51:15;12.07;;;7.57;;
2396;SDS011;1209;48.410;9.054;2023-04-06T07:53:42;12.27;;;8.57;;
2396;SDS011;1209;48.410;9.054;2023-04-06T07:56:09;13.93;;;8.80;;
2396;SDS011;1209;48.410;9.054;2023-04-06T07:58:34;11.03;;;8.20;;
2396;SDS011;1209;48.410;9.054;2023-04-06T08:01:00;10.70;;;6.47;;
2396;SDS011;1209;48.410;9.054;2023-04-06T08:03:26;10.63;;;7.73;;
2396;SDS011;1209;48.410;9.054;2023-04-06T08:05:51;12.03;;;6.20;;
2396;SDS011;1209;48.410;9.054;2023-04-06T08:08:17;8.87;;;6.97;;
2396;SDS011;1209;48.410;9.054;2023-04-06T08:10:43;10.57;;;8.43;;
2396;SDS011;1209;48.410;9.054;2023-04-06T08:13:08;13.00;;;8.50;;
2396;SDS011;1209;48.410;9.054;2023-04-06T08:15:34;11.97;;;6.87;;
2396;SDS011;1209;48.410;9.054;2023-04-06T08:17:59;9.20;;;7.00;;
2396;SDS011;1209;48.410;9.054;2023-04-06T08:20:25;8.73;;;6.60;;
2396;SDS011;1209;48.410;9.054;2023-04-06T08:22:50;11.23;;;7.10;;
2396;SDS011;1209;48.410;9.054;2023-04-06T08:25:15;10.47;;;7.10;;
2396;SDS011;1209;48.410;9.054;2023-04-06T08:27:41;9.80;;;6.50;;
2396;SDS011;1209;48.410;9.054;2023-04-06T08:30:06;9.33;;;6.67;;
2396;SDS011;1209;48.410;9.054;2023-04-06T08:32:31;10.60;;;6.23;;
2396;SDS011;1209;48.410;9.054;2023-04-06T08:34:57;8.37;;;6.43;;
2396;SDS011;1209;48.410;9.054;2023-04-06T08:37:22;9.80;;;7.23;;
2396;SDS011;1209;48.410;9.054;2023-04-06T08:39:48;7.63;;;6.03;;
2396;SDS011;1209;48.410;9.054;2023-04-06T08:42:16;17.87;;;7.87;;
2396;SDS011;1209;48.410;9.054;2023-04-06T08:44:45;20.57;;;11.60;;
2396;SDS011;1209;48.410;9.054;2023-04-06T08:47:12;8.83;;;6.53;;
2396;SDS011;1209;48.410;9.054;2023-04-06T08:49:37;9.67;;;6.33;;
2396;SDS011;1209;48.410;9.054;2023-04-06T08:52:05;13.40;;;8.23;;
2396;SDS011;1209;48.410;9.054;2023-04-06T08:54:32;10.33;;;6.67;;
2396;SDS011;1209;48.410;9.054;2023-04-06T08:56:58;9.80;;;7.20;;
2396;SDS011;1209;48.410;9.054;2023-04-06T08:59:24;12.23;;;6.97;;
2396;SDS011;1209;48.410;9.054;2023-04-06T09:01:50;10.60;;;7.60;;
2396;SDS011;1209;48.410;9.054;2023-04-06T09:04:17;8.40;;;6.77;;
2396;SDS011;1209;48.410;9.054;2023-04-06T09:06:43;9.43;;;5.37;;
2396;SDS011;1209;48.410;9.054;2023-04-06T09:09:08;8.80;;;6.13;;
2396;SDS011;1209;48.410;9.054;2023-04-06T09:14:08;8.73;;;5.27;;
2396;SDS011;1209;48.410;9.054;2023-04-06T09:16:38;7.60;;;5.90;;
2396;SDS011;1209;48.410;9.054;2023-04-06T09:19:05;10.67;;;6.00;;
2396;SDS011;1209;48.410;9.054;2023-04-06T09:21:30;7.70;;;5.40;;
2396;SDS011;1209;48.410;9.054;2023-04-06T09:24:00;7.10;;;3.83;;
2396;SDS011;1209;48.410;9.054;2023-04-06T09:26:26;4.23;;;3.83;;
2396;SDS011;1209;48.410;9.054;2023-04-06T09:28:52;3.10;;;2.80;;
2396;SDS011;1209;48.410;9.054;2023-04-06T09:31:23;4.53;;;3.30;;
2396;SDS011;1209;48.410;9.054;2023-04-06T09:33:52;6.27;;;4.20;;
2396;SDS011;1209;48.410;9.054;2023-04-06T09:36:18;4.53;;;3.13;;
2396;SDS011;1209;48.410;9.054;2023-04-06T09:38:51;4.70;;;3.53;;
2396;SDS011;1209;48.410;9.054;2023-04-06T09:41:41;6.57;;;4.20;;
2396;SDS011;1209;48.410;9.054;2023-04-06T09:44:10;5.47;;;4.47;;
2396;SDS011;1209;48.410;9.054;2023-04-06T09:46:37;4.40;;;4.00;;
2396;SDS011;1209;48.410;9.054;2023-04-06T09:49:04;5.90;;;3.40;;
2396;SDS011;1209;48.410;9.054;2023-04-06T09:51:31;3.60;;;3.30;;
2396;SDS011;1209;48.410;9.054;2023-04-06T09:54:00;8.60;;;3.70;;
2396;SDS011;1209;48.410;9.054;2023-04-06T09:56:31;4.03;;;3.67;;
2396;SDS011;1209;48.410;9.054;2023-04-06T09:59:10;6.90;;;3.60;;
2396;SDS011;1209;48.410;9.054;2023-04-06T10:01:39;6.53;;;3.77;;
2396;SDS011;1209;48.410;9.054;2023-04-06T10:07:08;6.10;;;4.53;;
2396;SDS011;1209;48.410;9.054;2023-04-06T10:09:36;6.37;;;3.70;;
2396;SDS011;1209;48.410;9.054;2023-04-06T10:12:05;6.10;;;4.10;;
2396;SDS011;1209;48.410;9.054;2023-04-06T10:14:34;6.33;;;4.20;;
2396;SDS011;1209;48.410;9.054;2023-04-06T10:17:03;5.43;;;3.50;;
2396;SDS011;1209;48.410;9.054;2023-04-06T10:19:32;6.67;;;4.40;;
2396;SDS011;1209;48.410;9.054;2023-04-06T10:22:04;4.33;;;3.60;;
2396;SDS011;1209;48.410;9.054;2023-04-06T10:24:31;5.13;;;3.67;;
2396;SDS011;1209;48.410;9.054;2023-04-06T10:26:57;4.30;;;3.47;;
2396;SDS011;1209;48.410;9.054;2023-04-06T10:29:43;4.33;;;3.60;;
2396;SDS011;1209;48.410;9.054;2023-04-06T10:32:10;5.90;;;4.30;;
2396;SDS011;1209;48.410;9.054;2023-04-06T10:34:35;4.47;;;3.50;;
2396;SDS011;1209;48.410;9.054;2023-04-06T10:37:10;6.00;;;2.97;;
2396;SDS011;1209;48.410;9.054;2023-04-06T10:39:54;4.87;;;3.60;;
2396;SDS011;1209;48.410;9.054;2023-04-06T10:42:25;3.97;;;3.20;;
2396;SDS011;1209;48.410;9.054;2023-04-06T10:45:01;5.63;;;3.63;;
2396;SDS011;1209;48.410;9.054;2023-04-06T10:47:26;4.47;;;3.33;;
2396;SDS011;1209;48.410;9.054;2023-04-06T10:49:51;4.20;;;3.80;;
2396;SDS011;1209;48.410;9.054;2023-04-06T10:52:17;5.27;;;3.90;;
2396;SDS011;1209;48.410;9.054;2023-04-06T10:54:42;3.87;;;3.53;;
2396;SDS011;1209;48.410;9.054;2023-04-06T10:57:09;6.63;;;4.33;;
2396;SDS011;1209;48.410;9.054;2023-04-06T10:59:34;8.70;;;4.37;;
2396;SDS011;1209;48.410;9.054;2023-04-06T11:02:00;4.77;;;3.47;;
2396;SDS011;1209;48.410;9.054;2023-04-06T11:04:25;7.03;;;2.90;;
2396;SDS011;1209;48.410;9.054;2023-04-06T11:06:51;4.50;;;3.23;;
2396;SDS011;1209;48.410;9.054;2023-04-06T11:09:23;4.17;;;3.50;;
2396;SDS011;1209;48.410;9.054;2023-04-06T11:11:50;6.27;;;3.67;;
2396;SDS011;1209;48.410;9.054;2023-04-06T11:14:15;4.57;;;3.23;;
2396;SDS011;1209;48.410;9.054;2023-04-06T11:16:40;4.43;;;3.20;;
2396;SDS011;1209;48.410;9.054;2023-04-06T11:19:06;4.00;;;2.70;;
2396;SDS011;1209;48.410;9.054;2023-04-06T11:24:11;4.10;;;3.63;;
2396;SDS011;1209;48.410;9.054;2023-04-06T11:26:39;4.50;;;3.13;;
2396;SDS011;1209;48.410;9.054;2023-04-06T11:29:06;6.17;;;4.00;;
2396;SDS011;1209;48.410;9.054;2023-04-06T11:31:37;4.03;;;3.63;;
2396;SDS011;1209;48.410;9.054;2023-04-06T11:34:08;8.70;;;4.60;;
2396;SDS011;1209;48.410;9.054;2023-04-06T11:36:35;4.07;;;3.70;;
2396;SDS011;1209;48.410;9.054;2023-04-06T11:39:02;4.33;;;3.50;;
2396;SDS011;1209;48.410;9.054;2023-04-06T11:41:28;5.03;;;3.60;;
2396;SDS011;1209;48.410;9.054;2023-04-06T11:43:55;3.97;;;3.60;;
2396;SDS011;1209;48.410;9.054;2023-04-06T11:46:20;6.03;;;4.27;;
2396;SDS011;1209;48.410;9.054;2023-04-06T11:48:46;7.07;;;4.63;;
2396;SDS011;1209;48.410;9.054;2023-04-06T11:51:11;6.80;;;5.20;;
2396;SDS011;1209;48.410;9.054;2023-04-06T11:53:43;4.90;;;3.87;;
2396;SDS011;1209;48.410;9.054;2023-04-06T11:56:22;3.83;;;3.53;;
2396;SDS011;1209;48.410;9.054;2023-04-06T11:58:48;6.67;;;3.97;;
2396;SDS011;1209;48.410;9.054;2023-04-06T12:01:13;5.07;;;3.90;;
2396;SDS011;1209;48.410;9.054;2023-04-06T12:03:38;6.20;;;4.13;;
2396;SDS011;1209;48.410;9.054;2023-04-06T12:06:03;4.90;;;4.10;;
2396;SDS011;1209;48.410;9.054;2023-04-06T12:08:29;5.53;;;3.60;;
2396;SDS011;1209;48.410;9.054;2023-04-06T12:10:54;7.17;;;5.63;;
2396;SDS011;1209;48.410;9.054;2023-04-06T12:13:20;6.30;;;4.80;;
2396;SDS011;1209;48.410;9.054;2023-04-06T12:15:45;5.90;;;3.87;;
2396;SDS011;1209;48.410;9.054;2023-04-06T12:18:10;5.70;;;4.20;;
2396;SDS011;1209;48.410;9.054;2023-04-06T12:20:35;4.70;;;3.90;;
2396;SDS011;1209;48.410;9.054;2023-04-06T12:23:01;4.67;;;4.20;;
2396;SDS011;1209;48.410;9.054;2023-04-06T12:25:26;5.37;;;4.20;;
2396;SDS011;1209;48.410;9.054;2023-04-06T12:27:51;6.30;;;4.63;;
2396;SDS011;1209;48.410;9.054;2023-04-06T12:30:17;5.60;;;4.20;;
2396;SDS011;1209;48.410;9.054;2023-04-06T12:32:42;3.93;;;3.53;;
2396;SDS011;1209;48.410;9.054;2023-04-06T12:35:08;4.97;;;4.10;;
2396;SDS011;1209;48.410;9.054;2023-04-06T12:37:33;4.40;;;4.00;;
2396;SDS011;1209;48.410;9.054;2023-04-06T12:39:59;3.60;;;3.30;;
2396;SDS011;1209;48.410;9.054;2023-04-06T12:42:25;4.10;;;3.40;;
2396;SDS011;1209;48.410;9.054;2023-04-06T12:44:51;6.67;;;4.43;;
2396;SDS011;1209;48.410;9.054;2023-04-06T12:47:16;5.00;;;3.73;;
2396;SDS011;1209;48.410;9.054;2023-04-06T12:49:43;5.60;;;4.00;;
2396;SDS011;1209;48.410;9.054;2023-04-06T12:52:08;3.57;;;3.23;;
2396;SDS011;1209;48.410;9.054;2023-04-06T12:54:34;5.30;;;3.63;;
2396;SDS011;1209;48.410;9.054;2023-04-06T12:56:59;7.07;;;4.40;;
2396;SDS011;1209;48.410;9.054;2023-04-06T12:59:25;6.10;;;4.03;;
2396;SDS011;1209;48.410;9.054;2023-04-06T13:01:51;4.87;;;3.67;;
2396;SDS011;1209;48.410;9.054;2023-04-06T13:04:17;5.87;;;3.43;;
2396;SDS011;1209;48.410;9.054;2023-04-06T13:06:42;4.93;;;3.73;;
2396;SDS011;1209;48.410;9.054;2023-04-06T13:09:08;4.00;;;3.60;;
2396;SDS011;1209;48.410;9.054;2023-04-06T13:11:33;7.40;;;3.83;;
2396;SDS011;1209;48.410;9.054;2023-04-06T13:13:58;5.03;;;3.83;;
2396;SDS011;1209;48.410;9.054;2023-04-06T13:16:24;3.90;;;2.97;;
2396;SDS011;1209;48.410;9.054;2023-04-06T13:18:49;6.23;;;3.17;;
2396;SDS011;1209;48.410;9.054;2023-04-06T13:21:15;4.37;;;3.03;;
2396;SDS011;1209;48.410;9.054;2023-04-06T13:23:41;4.70;;;3.60;;
2396;SDS011;1209;48.410;9.054;2023-04-06T13:26:07;4.17;;;3.00;;
2396;SDS011;1209;48.410;9.054;2023-04-06T13:28:33;5.73;;;3.70;;
2396;SDS011;1209;48.410;9.054;2023-04-06T13:31:00;7.13;;;3.30;;
2396;SDS011;1209;48.410;9.054;2023-04-06T13:33:27;4.70;;;3.40;;
2396;SDS011;1209;48.410;9.054;2023-04-06T13:35:53;4.77;;;3.47;;
2396;SDS011;1209;48.410;9.054;2023-04-06T13:38:18;4.50;;;3.50;;
2396;SDS011;1209;48.410;9.054;2023-04-06T13:40:44;5.37;;;3.10;;
2396;SDS011;1209;48.410;9.054;2023-04-06T13:43:09;3.63;;;3.33;;
2396;SDS011;1209;48.410;9.054;2023-04-06T13:45:35;4.43;;;3.77;;
2396;SDS011;1209;48.410;9.054;2023-04-06T13:48:00;6.57;;;3.77;;
2396;SDS011;1209;48.410;9.054;2023-04-06T13:50:26;3.50;;;3.10;;
2396;SDS011;1209;48.410;9.054;2023-04-06T13:52:52;6.83;;;3.90;;
2396;SDS011;1209;48.410;9.054;2023-04-06T13:55:17;3.30;;;3.00;;
2396;SDS011;1209;48.410;9.054;2023-04-06T13:57:42;4.03;;;3.63;;
2396;SDS011;1209;48.410;9.054;2023-04-06T14:00:08;3.40;;;3.00;;
2396;SDS011;1209;48.410;9.054;2023-04-06T14:02:36;5.13;;;3.10;;
2396;SDS011;1209;48.410;9.054;2023-04-06T14:05:01;5.80;;;3.87;;
2396;SDS011;1209;48.410;9.054;2023-04-06T14:07:28;5.57;;;3.93;;
2396;SDS011;1209;48.410;9.054;2023-04-06T14:09:53;5.97;;;3.37;;
2396;SDS011;1209;48.410;9.054;2023-04-06T14:12:18;3.90;;;2.90;;
2396;SDS011;1209;48.410;9.054;2023-04-06T14:14:44;3.20;;;2.90;;
2396;SDS011;1209;48.410;9.054;2023-04-06T14:17:09;4.03;;;3.63;;
2396;SDS011;1209;48.410;9.054;2023-04-06T14:19:35;4.70;;;3.13;;
2396;SDS011;1209;48.410;9.054;2023-04-06T14:22:01;3.20;;;2.90;;
2396;SDS011;1209;48.410;9.054;2023-04-06T14:24:26;4.20;;;3.13;;
2396;SDS011;1209;48.410;9.054;2023-04-06T14:26:51;3.63;;;3.10;;
2396;SDS011;1209;48.410;9.054;2023-04-06T14:29:17;4.40;;;3.33;;
2396;SDS011;1209;48.410;9.054;2023-04-06T14:31:42;4.87;;;2.87;;
2396;SDS011;1209;48.410;9.054;2023-04-06T14:34:10;5.30;;;3.30;;
2396;SDS011;1209;48.410;9.054;2023-04-06T14:36:36;4.70;;;3.60;;
2396;SDS011;1209;48.410;9.054;2023-04-06T14:39:06;7.13;;;4.27;;
2396;SDS011;1209;48.410;9.054;2023-04-06T14:41:32;5.47;;;3.67;;
2396;SDS011;1209;48.410;9.054;2023-04-06T14:43:58;3.17;;;2.70;;
2396;SDS011;1209;48.410;9.054;2023-04-06T14:46:24;4.53;;;3.30;;
2396;SDS011;1209;48.410;9.054;2023-04-06T14:48:51;3.40;;;3.07;;
2396;SDS011;1209;48.410;9.054;2023-04-06T14:51:17;4.13;;;3.43;;
2396;SDS011;1209;48.410;9.054;2023-04-06T14:53:42;4.13;;;3.60;;
2396;SDS011;1209;48.410;9.054;2023-04-06T14:56:08;4.33;;;3.10;;
2396;SDS011;1209;48.410;9.054;2023-04-06T14:58:33;3.70;;;2.80;;
2396;SDS011;1209;48.410;9.054;2023-04-06T15:00:59;3.37;;;3.07;;
2396;SDS011;1209;48.410;9.054;2023-04-06T15:03:25;6.07;;;3.37;;
2396;SDS011;1209;48.410;9.054;2023-04-06T15:05:52;3.30;;;2.50;;
2396;SDS011;1209;48.410;9.054;2023-04-06T15:08:17;4.20;;;3.73;;
2396;SDS011;1209;48.410;9.054;2023-04-06T15:10:45;3.27;;;2.97;;
2396;SDS011;1209;48.410;9.054;2023-04-06T15:13:11;4.47;;;3.00;;